sensor_id;sensor_type;location;lat;lon;timestamp;pressure;altitude;pressure_sealevel;temperature;humidity
19526;BME280;9907;42.676;26.348;2022-12-19T00:00:45;100844.34;;;6.59;60.41
19526;BME280;9907;42.676;26.348;2022-12-19T00:03:11;100860.56;;;6.53;60.71
19526;BME280;9907;42.676;26.348;2022-12-19T00:05:37;100861.75;;;6.66;60.44
19526;BME280;9907;42.676;26.348;2022-12-19T00:08:04;100862.03;;;6.40;60.97
19526;BME280;9907;42.676;26.348;2022-12-19T00:10:30;100858.56;;;6.58;61.14
19526;BME280;9907;42.676;26.348;2022-12-19T00:12:55;100862.59;;;6.67;60.96
19526;BME280;9907;42.676;26.348;2022-12-19T00:15:21;100857.97;;;6.72;60.89
19526;BME280;9907;42.676;26.348;2022-12-19T00:17:46;100857.00;;;6.73;60.40
19526;BME280;9907;42.676;26.348;2022-12-19T00:20:11;100859.84;;;6.50;60.71
19526;BME280;9907;42.676;26.348;2022-12-19T00:22:37;100860.28;;;6.59;60.18
19526;BME280;9907;42.676;26.348;2022-12-19T00:25:02;100854.19;;;6.57;60.57
19526;BME280;9907;42.676;26.348;2022-12-19T00:27:33;100861.88;;;6.63;60.60
19526;BME280;9907;42.676;26.348;2022-12-19T00:29:58;100859.13;;;6.46;59.83
19526;BME280;9907;42.676;26.348;2022-12-19T00:32:24;100859.31;;;6.21;60.86
19526;BME280;9907;42.676;26.348;2022-12-19T00:34:50;100859.03;;;6.07;60.09
19526;BME280;9907;42.676;26.348;2022-12-19T00:37:15;100851.59;;;5.73;61.18
19526;BME280;9907;42.676;26.348;2022-12-19T00:39:40;100851.84;;;5.67;61.02
19526;BME280;9907;42.676;26.348;2022-12-19T00:42:06;100850.13;;;5.45;60.68
19526;BME280;9907;42.676;26.348;2022-12-19T00:44:31;100856.13;;;5.50;61.41
19526;BME280;9907;42.676;26.348;2022-12-19T00:46:57;100862.72;;;5.61;61.51
19526;BME280;9907;42.676;26.348;2022-12-19T00:49:22;100861.28;;;5.53;61.47
19526;BME280;9907;42.676;26.348;2022-12-19T00:51:48;100868.44;;;5.51;61.29
19526;BME280;9907;42.676;26.348;2022-12-19T00:54:13;100860.84;;;5.63;61.01
19526;BME280;9907;42.676;26.348;2022-12-19T00:56:39;100866.72;;;5.50;61.44
19526;BME280;9907;42.676;26.348;2022-12-19T00:59:04;100850.50;;;5.57;60.42
19526;BME280;9907;42.676;26.348;2022-12-19T01:01:36;100850.50;;;5.57;60.80
19526;BME280;9907;42.676;26.348;2022-12-19T01:04:04;100851.72;;;5.70;59.25
19526;BME280;9907;42.676;26.348;2022-12-19T01:06:29;100855.25;;;5.71;59.24
19526;BME280;9907;42.676;26.348;2022-12-19T01:08:55;100857.78;;;5.52;58.57
19526;BME280;9907;42.676;26.348;2022-12-19T01:11:21;100859.03;;;5.65;59.29
19526;BME280;9907;42.676;26.348;2022-12-19T01:14:07;100859.84;;;5.66;58.41
19526;BME280;9907;42.676;26.348;2022-12-19T01:16:32;100857.28;;;5.43;59.26
19526;BME280;9907;42.676;26.348;2022-12-19T01:18:58;100858.75;;;5.71;58.73
19526;BME280;9907;42.676;26.348;2022-12-19T01:21:23;100856.41;;;5.85;58.77
19526;BME280;9907;42.676;26.348;2022-12-19T01:23:49;100850.94;;;5.90;58.29
19526;BME280;9907;42.676;26.348;2022-12-19T01:26:14;100850.66;;;5.54;58.08
19526;BME280;9907;42.676;26.348;2022-12-19T01:28:39;100851.97;;;5.21;58.79
19526;BME280;9907;42.676;26.348;2022-12-19T01:31:05;100849.34;;;4.98;59.75
19526;BME280;9907;42.676;26.348;2022-12-19T01:33:31;100851.28;;;4.93;60.00
19526;BME280;9907;42.676;26.348;2022-12-19T01:35:56;100849.56;;;4.91;60.28
19526;BME280;9907;42.676;26.348;2022-12-19T01:38:22;100853.72;;;4.99;61.26
19526;BME280;9907;42.676;26.348;2022-12-19T01:40:49;100844.78;;;5.01;60.33
19526;BME280;9907;42.676;26.348;2022-12-19T01:43:15;100845.88;;;5.19;60.86
19526;BME280;9907;42.676;26.348;2022-12-19T01:45:42;100840.25;;;5.26;60.40
19526;BME280;9907;42.676;26.348;2022-12-19T01:48:15;100851.34;;;5.36;60.17
19526;BME280;9907;42.676;26.348;2022-12-19T01:50:57;100850.88;;;5.48;59.08
19526;BME280;9907;42.676;26.348;2022-12-19T01:53:27;100853.09;;;5.59;58.72
19526;BME280;9907;42.676;26.348;2022-12-19T01:55:54;100846.41;;;5.70;58.50
19526;BME280;9907;42.676;26.348;2022-12-19T01:58:20;100845.88;;;5.40;57.96
19526;BME280;9907;42.676;26.348;2022-12-19T02:00:47;100843.84;;;5.47;58.44
19526;BME280;9907;42.676;26.348;2022-12-19T02:03:22;100844.56;;;5.51;58.36
19526;BME280;9907;42.676;26.348;2022-12-19T02:05:51;100839.41;;;5.48;58.76
19526;BME280;9907;42.676;26.348;2022-12-19T02:08:17;100845.81;;;5.64;58.12
19526;BME280;9907;42.676;26.348;2022-12-19T02:10:43;100845.25;;;5.77;57.89
19526;BME280;9907;42.676;26.348;2022-12-19T02:13:09;100856.41;;;5.85;58.00
19526;BME280;9907;42.676;26.348;2022-12-19T02:18:29;100861.22;;;5.98;58.56
19526;BME280;9907;42.676;26.348;2022-12-19T02:34:55;100866.28;;;6.24;58.53
19526;BME280;9907;42.676;26.348;2022-12-19T02:37:46;100867.28;;;6.21;59.73
19526;BME280;9907;42.676;26.348;2022-12-19T02:40:15;100863.63;;;6.24;58.68
19526;BME280;9907;42.676;26.348;2022-12-19T02:42:44;100859.13;;;6.26;58.50
19526;BME280;9907;42.676;26.348;2022-12-19T02:45:13;100869.91;;;6.21;58.92
19526;BME280;9907;42.676;26.348;2022-12-19T02:47:40;100871.66;;;6.22;58.32
19526;BME280;9907;42.676;26.348;2022-12-19T02:50:07;100880.44;;;6.24;57.59
19526;BME280;9907;42.676;26.348;2022-12-19T02:55:12;100865.25;;;6.06;55.46
19526;BME280;9907;42.676;26.348;2022-12-19T03:00:26;100873.16;;;6.08;54.95
19526;BME280;9907;42.676;26.348;2022-12-19T03:08:25;100873.16;;;6.08;55.23
19526;BME280;9907;42.676;26.348;2022-12-19T03:11:05;100870.78;;;6.02;54.58
19526;BME280;9907;42.676;26.348;2022-12-19T03:13:35;100877.63;;;5.85;56.18
19526;BME280;9907;42.676;26.348;2022-12-19T03:16:03;100884.25;;;5.97;53.75
19526;BME280;9907;42.676;26.348;2022-12-19T03:18:32;100891.47;;;5.94;55.35
19526;BME280;9907;42.676;26.348;2022-12-19T03:21:20;100895.94;;;5.92;54.44
19526;BME280;9907;42.676;26.348;2022-12-19T03:23:49;100894.16;;;5.92;54.32
19526;BME280;9907;42.676;26.348;2022-12-19T03:26:19;100879.84;;;5.96;55.00
19526;BME280;9907;42.676;26.348;2022-12-19T03:28:52;100886.16;;;5.94;54.37
19526;BME280;9907;42.676;26.348;2022-12-19T03:31:22;100894.16;;;5.92;53.92
19526;BME280;9907;42.676;26.348;2022-12-19T03:33:53;100886.28;;;5.91;54.57
19526;BME280;9907;42.676;26.348;2022-12-19T03:36:24;100892.56;;;5.88;55.09
19526;BME280;9907;42.676;26.348;2022-12-19T03:38:52;100891.78;;;5.84;54.93
19526;BME280;9907;42.676;26.348;2022-12-19T03:41:21;100889.44;;;5.77;54.68
19526;BME280;9907;42.676;26.348;2022-12-19T03:44:10;100896.66;;;5.73;54.06
19526;BME280;9907;42.676;26.348;2022-12-19T03:46:42;100886.28;;;5.69;55.35
19526;BME280;9907;42.676;26.348;2022-12-19T03:49:10;100892.53;;;5.66;55.52
19526;BME280;9907;42.676;26.348;2022-12-19T03:51:47;100891.75;;;5.64;55.20
19526;BME280;9907;42.676;26.348;2022-12-19T03:54:22;100898.09;;;5.60;55.67
19526;BME280;9907;42.676;26.348;2022-12-19T04:01:55;100906.41;;;5.51;54.95
19526;BME280;9907;42.676;26.348;2022-12-19T04:04:23;100904.78;;;5.47;54.44
19526;BME280;9907;42.676;26.348;2022-12-19T04:06:50;100909.44;;;5.42;54.31
19526;BME280;9907;42.676;26.348;2022-12-19T04:09:20;100922.75;;;5.40;54.71
19526;BME280;9907;42.676;26.348;2022-12-19T04:11:50;100912.31;;;5.36;55.39
19526;BME280;9907;42.676;26.348;2022-12-19T04:14:29;100926.09;;;5.22;54.34
19526;BME280;9907;42.676;26.348;2022-12-19T04:22:31;100921.72;;;5.21;54.66
19526;BME280;9907;42.676;26.348;2022-12-19T04:25:02;100928.00;;;5.19;54.34
19526;BME280;9907;42.676;26.348;2022-12-19T04:27:36;100923.72;;;5.15;54.36
19526;BME280;9907;42.676;26.348;2022-12-19T04:30:06;100928.16;;;5.14;54.97
19526;BME280;9907;42.676;26.348;2022-12-19T04:32:34;100916.78;;;5.12;56.14
19526;BME280;9907;42.676;26.348;2022-12-19T04:35:00;100927.41;;;5.11;56.25
19526;BME280;9907;42.676;26.348;2022-12-19T04:37:27;100926.75;;;5.06;55.68
19526;BME280;9907;42.676;26.348;2022-12-19T04:39:53;100924.19;;;5.03;55.92
19526;BME280;9907;42.676;26.348;2022-12-19T04:42:19;100941.06;;;5.00;56.11
19526;BME280;9907;42.676;26.348;2022-12-19T04:44:44;100947.50;;;4.93;56.69
19526;BME280;9907;42.676;26.348;2022-12-19T04:47:10;100943.06;;;4.94;57.23
19526;BME280;9907;42.676;26.348;2022-12-19T04:49:36;100943.19;;;4.90;57.48
19526;BME280;9907;42.676;26.348;2022-12-19T04:52:01;100943.19;;;4.90;57.66
19526;BME280;9907;42.676;26.348;2022-12-19T04:54:27;100947.66;;;4.88;59.21
19526;BME280;9907;42.676;26.348;2022-12-19T04:56:52;100964.53;;;4.86;59.12
19526;BME280;9907;42.676;26.348;2022-12-19T04:59:18;100966.56;;;4.79;58.79
19526;BME280;9907;42.676;26.348;2022-12-19T05:01:43;100969.19;;;4.79;58.24
19526;BME280;9907;42.676;26.348;2022-12-19T05:04:09;100960.38;;;4.79;58.34
19526;BME280;9907;42.676;26.348;2022-12-19T05:06:35;100971.13;;;4.74;58.35
19526;BME280;9907;42.676;26.348;2022-12-19T05:09:00;100970.16;;;4.77;58.25
19526;BME280;9907;42.676;26.348;2022-12-19T05:11:25;100973.91;;;4.71;58.15
19526;BME280;9907;42.676;26.348;2022-12-19T05:13:51;100971.28;;;4.70;57.64
19526;BME280;9907;42.676;26.348;2022-12-19T05:16:16;100972.22;;;4.69;57.68
19526;BME280;9907;42.676;26.348;2022-12-19T05:18:42;100987.28;;;4.67;58.11
19526;BME280;9907;42.676;26.348;2022-12-19T05:21:08;100993.50;;;4.66;57.20
19526;BME280;9907;42.676;26.348;2022-12-19T05:23:35;100995.38;;;4.62;56.21
19526;BME280;9907;42.676;26.348;2022-12-19T05:26:02;100998.00;;;4.64;57.78
19526;BME280;9907;42.676;26.348;2022-12-19T05:28:29;100992.72;;;4.62;58.28
19526;BME280;9907;42.676;26.348;2022-12-19T05:31:12;100997.19;;;4.62;58.60
19526;BME280;9907;42.676;26.348;2022-12-19T05:33:39;100993.75;;;4.58;58.07
19526;BME280;9907;42.676;26.348;2022-12-19T05:36:06;100995.63;;;4.55;57.56
19526;BME280;9907;42.676;26.348;2022-12-19T05:38:32;100990.53;;;4.50;56.42
19526;BME280;9907;42.676;26.348;2022-12-19T05:40:58;100994.84;;;4.53;55.78
19526;BME280;9907;42.676;26.348;2022-12-19T05:43:24;101008.03;;;4.54;55.79
19526;BME280;9907;42.676;26.348;2022-12-19T05:45:50;101009.09;;;4.49;53.23
19526;BME280;9907;42.676;26.348;2022-12-19T05:48:15;100994.09;;;4.49;52.68
19526;BME280;9907;42.676;26.348;2022-12-19T05:50:46;101000.25;;;4.50;52.38
19526;BME280;9907;42.676;26.348;2022-12-19T05:53:11;101008.44;;;4.42;51.49
19526;BME280;9907;42.676;26.348;2022-12-19T05:55:37;101012.00;;;4.41;50.03
19526;BME280;9907;42.676;26.348;2022-12-19T05:58:02;101022.19;;;4.53;51.96
19526;BME280;9907;42.676;26.348;2022-12-19T06:00:28;101015.78;;;4.59;51.45
19526;BME280;9907;42.676;26.348;2022-12-19T06:02:53;101021.84;;;4.62;52.60
19526;BME280;9907;42.676;26.348;2022-12-19T06:05:18;101025.09;;;4.70;51.77
19526;BME280;9907;42.676;26.348;2022-12-19T06:07:44;101031.06;;;4.77;51.59
19526;BME280;9907;42.676;26.348;2022-12-19T06:10:10;101038.44;;;4.94;50.63
19526;BME280;9907;42.676;26.348;2022-12-19T06:12:36;101039.78;;;5.05;50.03
19526;BME280;9907;42.676;26.348;2022-12-19T06:15:01;101033.94;;;5.20;50.34
19526;BME280;9907;42.676;26.348;2022-12-19T06:17:27;101039.72;;;5.31;49.90
19526;BME280;9907;42.676;26.348;2022-12-19T06:19:52;101050.84;;;5.41;49.83
19526;BME280;9907;42.676;26.348;2022-12-19T06:22:18;101039.03;;;5.50;49.51
19526;BME280;9907;42.676;26.348;2022-12-19T06:24:43;101040.53;;;5.57;47.98
19526;BME280;9907;42.676;26.348;2022-12-19T06:27:09;101048.19;;;5.64;48.56
19526;BME280;9907;42.676;26.348;2022-12-19T06:29:34;101042.66;;;5.70;48.13
19526;BME280;9907;42.676;26.348;2022-12-19T06:32:00;101040.69;;;5.75;48.92
19526;BME280;9907;42.676;26.348;2022-12-19T06:34:25;101054.63;;;5.80;48.71
19526;BME280;9907;42.676;26.348;2022-12-19T06:36:50;101048.41;;;5.81;47.80
19526;BME280;9907;42.676;26.348;2022-12-19T06:39:16;101056.38;;;5.81;48.39
19526;BME280;9907;42.676;26.348;2022-12-19T06:41:41;101061.13;;;5.97;51.26
19526;BME280;9907;42.676;26.348;2022-12-19T06:44:26;101062.34;;;6.10;48.48
19526;BME280;9907;42.676;26.348;2022-12-19T06:46:52;101069.06;;;6.20;48.55
19526;BME280;9907;42.676;26.348;2022-12-19T06:49:17;101072.88;;;6.34;47.80
19526;BME280;9907;42.676;26.348;2022-12-19T06:51:44;101084.72;;;6.48;48.03
19526;BME280;9907;42.676;26.348;2022-12-19T06:54:13;101080.53;;;6.64;47.56
19526;BME280;9907;42.676;26.348;2022-12-19T06:56:40;101087.13;;;6.75;47.32
19526;BME280;9907;42.676;26.348;2022-12-19T06:59:08;101086.91;;;6.80;46.90
19526;BME280;9907;42.676;26.348;2022-12-19T07:04:27;101096.06;;;6.95;47.44
19526;BME280;9907;42.676;26.348;2022-12-19T07:06:54;101101.97;;;7.01;47.79
19526;BME280;9907;42.676;26.348;2022-12-19T07:09:19;101099.75;;;7.11;46.59
19526;BME280;9907;42.676;26.348;2022-12-19T07:11:45;101093.25;;;7.18;45.71
19526;BME280;9907;42.676;26.348;2022-12-19T07:14:11;101103.56;;;7.25;45.09
19526;BME280;9907;42.676;26.348;2022-12-19T07:16:36;101110.28;;;7.34;43.97
19526;BME280;9907;42.676;26.348;2022-12-19T07:19:03;101101.34;;;7.55;43.38
19526;BME280;9907;42.676;26.348;2022-12-19T07:21:28;101100.88;;;7.84;43.31
19526;BME280;9907;42.676;26.348;2022-12-19T07:23:54;101103.75;;;7.99;43.21
19526;BME280;9907;42.676;26.348;2022-12-19T07:26:19;101099.50;;;7.95;41.40
19526;BME280;9907;42.676;26.348;2022-12-19T07:28:45;101110.53;;;8.06;41.14
19526;BME280;9907;42.676;26.348;2022-12-19T07:31:10;101105.06;;;7.90;41.72
19526;BME280;9907;42.676;26.348;2022-12-19T07:33:36;101105.72;;;8.14;42.11
19526;BME280;9907;42.676;26.348;2022-12-19T07:36:01;101103.19;;;8.11;41.92
19526;BME280;9907;42.676;26.348;2022-12-19T07:38:27;101110.41;;;8.09;41.17
19526;BME280;9907;42.676;26.348;2022-12-19T07:40:52;101117.56;;;7.88;42.04
19526;BME280;9907;42.676;26.348;2022-12-19T07:43:18;101124.91;;;7.83;41.05
19526;BME280;9907;42.676;26.348;2022-12-19T07:45:43;101117.88;;;8.01;41.76
19526;BME280;9907;42.676;26.348;2022-12-19T07:48:08;101113.97;;;7.89;42.15
19526;BME280;9907;42.676;26.348;2022-12-19T07:50:34;101115.63;;;7.92;40.84
19526;BME280;9907;42.676;26.348;2022-12-19T07:53:00;101125.13;;;7.78;41.47
19526;BME280;9907;42.676;26.348;2022-12-19T07:55:26;101118.28;;;7.92;41.21
19526;BME280;9907;42.676;26.348;2022-12-19T07:57:52;101121.69;;;7.56;41.73
19526;BME280;9907;42.676;26.348;2022-12-19T08:00:18;101113.44;;;8.20;42.27
19526;BME280;9907;42.676;26.348;2022-12-19T08:02:44;101133.84;;;8.75;40.70
19526;BME280;9907;42.676;26.348;2022-12-19T08:05:09;101122.72;;;9.02;40.30
19526;BME280;9907;42.676;26.348;2022-12-19T08:07:35;101124.56;;;9.01;40.48
19526;BME280;9907;42.676;26.348;2022-12-19T08:10:01;101140.53;;;8.65;39.62
19526;BME280;9907;42.676;26.348;2022-12-19T08:12:26;101134.94;;;7.76;41.59
19526;BME280;9907;42.676;26.348;2022-12-19T08:14:52;101132.34;;;7.56;41.37
19526;BME280;9907;42.676;26.348;2022-12-19T08:17:18;101150.56;;;7.45;42.32
19526;BME280;9907;42.676;26.348;2022-12-19T08:19:43;101157.34;;;6.47;42.95
19526;BME280;9907;42.676;26.348;2022-12-19T08:22:09;101158.56;;;6.81;42.86
19526;BME280;9907;42.676;26.348;2022-12-19T08:24:34;101170.28;;;6.54;42.91
19526;BME280;9907;42.676;26.348;2022-12-19T08:26:59;101154.63;;;6.70;43.67
19526;BME280;9907;42.676;26.348;2022-12-19T08:29:25;101161.81;;;6.23;44.96
19526;BME280;9907;42.676;26.348;2022-12-19T08:31:50;101174.72;;;6.32;43.96
19526;BME280;9907;42.676;26.348;2022-12-19T08:34:16;101161.06;;;6.43;43.52
19526;BME280;9907;42.676;26.348;2022-12-19T08:36:41;101160.47;;;5.88;45.41
19526;BME280;9907;42.676;26.348;2022-12-19T08:39:07;101166.72;;;5.85;45.20
19526;BME280;9907;42.676;26.348;2022-12-19T08:41:33;101150.00;;;6.08;44.67
19526;BME280;9907;42.676;26.348;2022-12-19T08:43:58;101141.50;;;6.22;45.96
19526;BME280;9907;42.676;26.348;2022-12-19T08:46:25;101144.13;;;6.45;45.27
19526;BME280;9907;42.676;26.348;2022-12-19T08:48:51;101145.63;;;6.29;45.58
19526;BME280;9907;42.676;26.348;2022-12-19T08:51:17;101145.34;;;6.58;44.79
19526;BME280;9907;42.676;26.348;2022-12-19T08:53:44;101133.75;;;6.82;45.56
19526;BME280;9907;42.676;26.348;2022-12-19T08:56:15;101140.53;;;6.90;44.36
19526;BME280;9907;42.676;26.348;2022-12-19T08:58:41;101143.19;;;6.90;45.25
19526;BME280;9907;42.676;26.348;2022-12-19T09:01:13;101133.91;;;7.00;44.89
19526;BME280;9907;42.676;26.348;2022-12-19T09:03:40;101139.50;;;7.14;44.24
19526;BME280;9907;42.676;26.348;2022-12-19T09:06:07;101136.19;;;7.09;44.04
19526;BME280;9907;42.676;26.348;2022-12-19T09:08:33;101126.47;;;7.08;44.17
19526;BME280;9907;42.676;26.348;2022-12-19T09:11:11;101148.16;;;7.19;45.18
19526;BME280;9907;42.676;26.348;2022-12-19T09:13:38;101134.00;;;7.18;44.14
19526;BME280;9907;42.676;26.348;2022-12-19T09:16:12;101136.59;;;7.20;44.32
19526;BME280;9907;42.676;26.348;2022-12-19T09:18:38;101133.84;;;7.21;44.32
19526;BME280;9907;42.676;26.348;2022-12-19T09:21:04;101126.16;;;7.15;44.50
19526;BME280;9907;42.676;26.348;2022-12-19T09:23:30;101126.06;;;7.17;44.61
19526;BME280;9907;42.676;26.348;2022-12-19T09:26:01;101135.22;;;6.90;44.75
19526;BME280;9907;42.676;26.348;2022-12-19T09:28:26;101126.25;;;6.92;44.22
19526;BME280;9907;42.676;26.348;2022-12-19T09:31:15;101126.69;;;6.81;44.96
19526;BME280;9907;42.676;26.348;2022-12-19T09:33:41;101128.75;;;6.75;45.01
19526;BME280;9907;42.676;26.348;2022-12-19T09:36:11;101114.28;;;6.82;45.14
19526;BME280;9907;42.676;26.348;2022-12-19T09:38:37;101119.16;;;6.93;45.05
19526;BME280;9907;42.676;26.348;2022-12-19T09:47:03;101117.94;;;6.79;44.34
19526;BME280;9907;42.676;26.348;2022-12-19T09:49:39;101124.72;;;6.87;44.99
19526;BME280;9907;42.676;26.348;2022-12-19T10:03:11;101114.47;;;6.34;45.23
19526;BME280;9907;42.676;26.348;2022-12-19T10:08:21;101110.19;;;6.08;46.09
19526;BME280;9907;42.676;26.348;2022-12-19T10:13:53;101096.94;;;6.08;46.39
19526;BME280;9907;42.676;26.348;2022-12-19T10:19:26;101088.59;;;5.71;45.02
19526;BME280;9907;42.676;26.348;2022-12-19T10:22:03;101093.19;;;5.66;46.25
19526;BME280;9907;42.676;26.348;2022-12-19T10:27:50;101088.13;;;6.06;45.67
19526;BME280;9907;42.676;26.348;2022-12-19T10:30:19;101096.75;;;6.13;45.98
19526;BME280;9907;42.676;26.348;2022-12-19T10:35:15;101086.69;;;6.21;48.60
19526;BME280;9907;42.676;26.348;2022-12-19T10:37:49;101086.88;;;6.38;48.88
19526;BME280;9907;42.676;26.348;2022-12-19T10:40:54;101081.75;;;6.33;48.33
19526;BME280;9907;42.676;26.348;2022-12-19T10:43:59;101078.66;;;6.22;48.48
19526;BME280;9907;42.676;26.348;2022-12-19T10:46:38;101079.84;;;6.37;47.95
19526;BME280;9907;42.676;26.348;2022-12-19T10:49:17;101073.63;;;6.38;48.71
19526;BME280;9907;42.676;26.348;2022-12-19T10:52:00;101080.44;;;6.44;48.52
19526;BME280;9907;42.676;26.348;2022-12-19T10:57:24;101072.50;;;6.44;48.81
19526;BME280;9907;42.676;26.348;2022-12-19T10:59:54;101076.56;;;6.52;48.72
19526;BME280;9907;42.676;26.348;2022-12-19T11:05:21;101066.31;;;6.65;47.48
19526;BME280;9907;42.676;26.348;2022-12-19T11:10:40;101066.66;;;6.77;47.81
19526;BME280;9907;42.676;26.348;2022-12-19T11:16:01;101072.84;;;6.78;47.32
19526;BME280;9907;42.676;26.348;2022-12-19T11:18:39;101073.09;;;6.72;47.85
19526;BME280;9907;42.676;26.348;2022-12-19T11:21:18;101064.00;;;6.77;47.09
19526;BME280;9907;42.676;26.348;2022-12-19T11:26:35;101075.34;;;6.81;47.02
19526;BME280;9907;42.676;26.348;2022-12-19T11:31:52;101068.72;;;6.71;47.58
19526;BME280;9907;42.676;26.348;2022-12-19T11:34:20;101073.84;;;6.75;47.13
19526;BME280;9907;42.676;26.348;2022-12-19T11:39:43;101067.97;;;6.67;46.33
19526;BME280;9907;42.676;26.348;2022-12-19T11:42:22;101068.66;;;6.72;47.33
19526;BME280;9907;42.676;26.348;2022-12-19T11:47:57;101057.22;;;6.70;46.71
19526;BME280;9907;42.676;26.348;2022-12-19T11:50:30;101056.16;;;6.74;47.31
19526;BME280;9907;42.676;26.348;2022-12-19T11:53:14;101065.66;;;6.80;47.17
19526;BME280;9907;42.676;26.348;2022-12-19T11:58:13;101062.34;;;6.75;47.30
19526;BME280;9907;42.676;26.348;2022-12-19T12:03:32;101073.97;;;6.72;47.20
19526;BME280;9907;42.676;26.348;2022-12-19T12:06:09;101076.69;;;6.71;46.67
19526;BME280;9907;42.676;26.348;2022-12-19T12:17:17;101077.31;;;6.12;48.05
19526;BME280;9907;42.676;26.348;2022-12-19T12:25:32;101069.66;;;6.26;48.05
19526;BME280;9907;42.676;26.348;2022-12-19T12:31:10;101066.00;;;6.29;47.73
19526;BME280;9907;42.676;26.348;2022-12-19T12:33:59;101072.75;;;6.38;47.78
19526;BME280;9907;42.676;26.348;2022-12-19T12:36:34;101065.09;;;6.30;47.27
19526;BME280;9907;42.676;26.348;2022-12-19T12:39:11;101058.19;;;6.26;48.10
19526;BME280;9907;42.676;26.348;2022-12-19T12:41:57;101067.47;;;6.14;47.70
19526;BME280;9907;42.676;26.348;2022-12-19T12:44:35;101063.13;;;6.13;47.81
19526;BME280;9907;42.676;26.348;2022-12-19T12:47:43;101076.69;;;6.06;48.56
19526;BME280;9907;42.676;26.348;2022-12-19T12:49:59;101064.09;;;6.11;48.13
19526;BME280;9907;42.676;26.348;2022-12-19T12:52:46;101069.22;;;6.15;48.20
19526;BME280;9907;42.676;26.348;2022-12-19T12:57:46;101089.31;;;5.99;48.46
19526;BME280;9907;42.676;26.348;2022-12-19T13:11:00;101087.19;;;5.84;49.32
19526;BME280;9907;42.676;26.348;2022-12-19T13:13:49;101102.38;;;5.80;49.01
19526;BME280;9907;42.676;26.348;2022-12-19T13:19:28;101119.09;;;5.82;49.55
19526;BME280;9907;42.676;26.348;2022-12-19T13:24:52;101111.47;;;5.73;49.15
19526;BME280;9907;42.676;26.348;2022-12-19T13:32:26;101113.84;;;5.81;49.45
19526;BME280;9907;42.676;26.348;2022-12-19T13:35:00;101112.81;;;5.85;49.96
19526;BME280;9907;42.676;26.348;2022-12-19T13:37:42;101113.38;;;5.95;49.54
19526;BME280;9907;42.676;26.348;2022-12-19T13:45:59;101125.31;;;5.81;49.62
19526;BME280;9907;42.676;26.348;2022-12-19T13:48:43;101120.03;;;5.81;49.30
19526;BME280;9907;42.676;26.348;2022-12-19T13:51:11;101128.06;;;5.80;49.86
19526;BME280;9907;42.676;26.348;2022-12-19T13:53:38;101121.00;;;5.79;49.61
19526;BME280;9907;42.676;26.348;2022-12-19T13:56:11;101110.41;;;5.79;49.52
19526;BME280;9907;42.676;26.348;2022-12-19T14:03:50;101127.31;;;5.52;49.96
19526;BME280;9907;42.676;26.348;2022-12-19T14:06:28;101120.47;;;5.46;50.92
19526;BME280;9907;42.676;26.348;2022-12-19T14:09:01;101124.13;;;5.42;50.42
19526;BME280;9907;42.676;26.348;2022-12-19T14:11:28;101125.38;;;5.32;50.70
19526;BME280;9907;42.676;26.348;2022-12-19T14:13:58;101124.53;;;5.31;50.65
19526;BME280;9907;42.676;26.348;2022-12-19T14:16:44;101116.63;;;5.30;50.04
19526;BME280;9907;42.676;26.348;2022-12-19T14:19:26;101115.81;;;5.28;50.53
19526;BME280;9907;42.676;26.348;2022-12-19T14:21:53;101107.94;;;5.25;50.55
19526;BME280;9907;42.676;26.348;2022-12-19T14:24:20;101111.66;;;5.21;50.79
19526;BME280;9907;42.676;26.348;2022-12-19T14:26:55;101113.59;;;5.16;50.16
19526;BME280;9907;42.676;26.348;2022-12-19T14:29:30;101100.72;;;5.05;50.30
19526;BME280;9907;42.676;26.348;2022-12-19T14:32:00;101109.44;;;4.82;51.08
19526;BME280;9907;42.676;26.348;2022-12-19T14:34:29;101105.78;;;4.86;51.59
19526;BME280;9907;42.676;26.348;2022-12-19T14:36:57;101115.47;;;4.87;51.71
19526;BME280;9907;42.676;26.348;2022-12-19T14:39:28;101113.09;;;4.78;51.50
19526;BME280;9907;42.676;26.348;2022-12-19T14:42:06;101104.25;;;4.79;51.63
19526;BME280;9907;42.676;26.348;2022-12-19T14:44:54;101105.31;;;4.74;51.23
19526;BME280;9907;42.676;26.348;2022-12-19T14:47:22;101106.28;;;4.71;51.92
19526;BME280;9907;42.676;26.348;2022-12-19T14:49:49;101099.56;;;4.61;51.76
19526;BME280;9907;42.676;26.348;2022-12-19T14:53:06;101115.44;;;4.61;51.90
19526;BME280;9907;42.676;26.348;2022-12-19T14:55:38;101105.25;;;4.49;52.33
19526;BME280;9907;42.676;26.348;2022-12-19T14:58:09;101116.31;;;4.34;52.23
19526;BME280;9907;42.676;26.348;2022-12-19T15:00:47;101105.03;;;3.70;52.86
19526;BME280;9907;42.676;26.348;2022-12-19T15:03:29;101108.78;;;3.92;52.91
19526;BME280;9907;42.676;26.348;2022-12-19T15:06:22;101113.25;;;3.61;52.93
19526;BME280;9907;42.676;26.348;2022-12-19T15:08:53;101117.00;;;3.83;53.09
19526;BME280;9907;42.676;26.348;2022-12-19T15:11:26;101109.44;;;3.99;52.90
19526;BME280;9907;42.676;26.348;2022-12-19T15:14:11;101108.41;;;4.05;53.05
19526;BME280;9907;42.676;26.348;2022-12-19T15:16:37;101113.59;;;4.08;53.15
19526;BME280;9907;42.676;26.348;2022-12-19T15:19:09;101121.50;;;4.09;52.88
19526;BME280;9907;42.676;26.348;2022-12-19T15:21:35;101124.19;;;4.08;52.25
19526;BME280;9907;42.676;26.348;2022-12-19T15:24:00;101132.13;;;4.08;52.37
19526;BME280;9907;42.676;26.348;2022-12-19T15:26:27;101130.44;;;4.05;52.09
19526;BME280;9907;42.676;26.348;2022-12-19T15:28:55;101134.91;;;4.03;52.57
19526;BME280;9907;42.676;26.348;2022-12-19T15:31:39;101135.66;;;3.77;53.01
19526;BME280;9907;42.676;26.348;2022-12-19T15:36:52;101119.84;;;3.76;53.92
19526;BME280;9907;42.676;26.348;2022-12-19T15:39:19;101130.31;;;3.80;54.02
19526;BME280;9907;42.676;26.348;2022-12-19T15:41:47;101125.81;;;3.84;53.92
19526;BME280;9907;42.676;26.348;2022-12-19T15:44:21;101121.34;;;3.84;53.50
19526;BME280;9907;42.676;26.348;2022-12-19T15:46:49;101140.31;;;3.69;53.98
19526;BME280;9907;42.676;26.348;2022-12-19T15:49:18;101139.59;;;3.32;54.92